Chester, Arkansas
Current Conditions -  °F | °C
As of 4:53 PM on Thursday 20 Nov 2014 (Local Time) from KFYV Reporting Station
Clear Clear  
Wind Chill: 50°   Ceiling: Unl
Heat Index: 50°   Visibility: 10mi
Dew Point: 34°   Wind: 8mph
Humidity: 54%   Direction: 160°SSE
Pressure: 30.08"   Gusts: NA
Location:  35.68°N, 94.18°W
Report Text: KFYV 202253Z 16007KT 10SM CLR 10/01 A3008 RMK AO2 SLP194 T01000011
Loading
Personal Weather Stations






























Interactive Weather Map New forecast layout! Learn more

10-Day Weather Forecast

Advertisements
Track Severe Weather on mobile